Volcan De Tauce — EAGW — position and weather

sailwx.info

Track history (hours):
 
Tides and Currents Weather Stations Pressure Air Temp Water Temp Dewpoint Dewpoint Depression Visibility Wind Speed Wind Dir Waves Ship Positions

Volcan De Tauce

Last reported at 2016-Jul-25 17:34 UTC. Time now 2016-Jul-25 17:49 UTC.
Position N 28°08' W 015°25'.

Length 120 m; draft 5 m.

Type: Ship (hazmat cat A). MMSI: 224761000.

Date/timePositionNaut miles runAvg speedWind from/ knotsBaromVisibWave heightAir tempDewpointWater temp
2016-Jul-25 17:34N 28°08' W 015°25'0 0.0
2016-Jul-25 16:33N 28°08' W 015°25'0 0.0
2016-Jul-25 15:34N 28°08' W 015°25'0 0.0
2016-Jul-25 14:33N 28°08' W 015°25'0 0.0
2016-Jul-25 13:33N 28°08' W 015°25'0 0.0
2016-Jul-25 12:33N 28°08' W 015°25'0 0.0
2016-Jul-25 11:33N 28°08' W 015°25'0 0.0
2016-Jul-25 10:33N 28°08' W 015°25'0 0.0
2016-Jul-25 09:34N 28°08' W 015°25'0 0.0
2016-Jul-25 08:33N 28°08' W 015°25'0 0.0
2016-Jul-25 07:33N 28°08' W 015°25'0 0.0
2016-Jul-25 06:33N 28°08' W 015°25'0 0.0
2016-Jul-25 05:33N 28°08' W 015°25'0 0.0
2016-Jul-25 04:34N 28°08' W 015°25'0 0.0
2016-Jul-25 03:33N 28°08' W 015°25'0 0.0
2016-Jul-25 02:34N 28°08' W 015°25'0 0.0
2016-Jul-25 01:34N 28°08' W 015°25'0 0.0
2016-Jul-25 00:33N 28°08' W 015°25'0 0.0
2016-Jul-24 23:34N 28°08' W 015°25'0 0.0
2016-Jul-24 22:33N 28°08' W 015°25'0 0.0
2016-Jul-24 21:34N 28°08' W 015°25'0 0.0
2016-Jul-24 20:33N 28°08' W 015°25'0 0.0
2016-Jul-24 19:33N 28°08' W 015°25'0 0.0
2016-Jul-24 18:33N 28°08' W 015°25'0 0.0
2016-Jul-24 17:33N 28°08' W 015°25'0 0.0
2016-Jul-24 16:34N 28°08' W 015°25'0 0.0
2016-Jul-24 15:34N 28°08' W 015°25'0 0.0
2016-Jul-24 14:34N 28°08' W 015°25'1110.6
2016-Jul-24 13:34N 28°06' W 015°13'1615.8
2016-Jul-24 12:33N 28°06' W 014°55'1615.9
2016-Jul-24 11:33N 28°02' W 014°38'1616.4
2016-Jul-24 10:33N 28°01' W 014°19'1716.4
2016-Jul-24 09:33N 28°09' W 014°03'9 1.7
2016-Jul-24 04:10N 28°14' W 013°54'1015.6
2016-Jul-24 03:33N 28°09' W 014°03'1515.3
2016-Jul-24 02:33N 28°02' W 014°18'1414.3
2016-Jul-24 01:33N 28°00' W 014°34'1515.0
2016-Jul-24 00:33N 28°02' W 014°51'1514.9
2016-Jul-23 23:33N 28°04' W 015°08'1514.9
2016-Jul-23 22:34N 28°07' W 015°24'1 1.0
2016-Jul-23 21:31N 28°08' W 015°25'0 0.0
2016-Jul-23 20:33N 28°08' W 015°25'0 0.0
2016-Jul-23 19:33N 28°08' W 015°25'0 0.0
2016-Jul-23 18:34N 28°08' W 015°25'0 0.0
2016-Jul-23 17:33N 28°08' W 015°25'1 1.3
2016-Jul-23 16:33N 28°07' W 015°24'1514.5
2016-Jul-23 15:33N 28°08' W 015°08'1515.4
2016-Jul-23 14:33N 28°08' W 014°50'1615.6
2016-Jul-23 13:33N 28°02' W 014°34'1716.3
2016-Jul-23 12:32N 28°03' W 014°15'1616.7
2016-Jul-23 11:33N 28°11' W 013°59'1715.2
2016-Jul-23 10:25N 28°26' W 013°49'1 0.2
2016-Jul-23 06:13N 28°27' W 013°50'2112.8
2016-Jul-23 04:34N 28°09' W 014°02'1515.0
2016-Jul-23 03:34N 28°02' W 014°17'1514.4
2016-Jul-23 02:33N 28°00' W 014°33'1414.6
2016-Jul-23 01:34N 28°01' W 014°50'1514.5
2016-Jul-23 00:33N 28°04' W 015°06'1514.7
2016-Jul-22 23:34N 28°07' W 015°22'3 2.5
2016-Jul-22 22:32N 28°08' W 015°25'0 0.0
2016-Jul-22 21:33N 28°08' W 015°25'0 0.0
2016-Jul-22 20:33N 28°08' W 015°25'0 0.0
2016-Jul-22 19:34N 28°08' W 015°25'0 0.0
2016-Jul-22 18:34N 28°08' W 015°25'0 0.0
2016-Jul-22 17:34N 28°08' W 015°25'1 1.0
2016-Jul-22 16:34N 28°07' W 015°24'1514.7
2016-Jul-22 15:33N 28°05' W 015°08'1615.7
2016-Jul-22 14:33N 28°04' W 014°50'1615.6
2016-Jul-22 13:33N 28°02' W 014°33'1615.5
2016-Jul-22 12:31N 28°03' W 014°14'1716.6
2016-Jul-22 11:29N 28°12' W 013°58'1615.0
2016-Jul-22 10:24N 28°26' W 013°50'16 2.7
2016-Jul-22 04:33N 28°12' W 013°57'1715.4
2016-Jul-22 03:29N 28°04' W 014°13'1414.7
2016-Jul-22 02:31N 28°02' W 014°29'1515.1
2016-Jul-22 01:29N 28°03' W 014°47'1414.9
2016-Jul-22 00:34N 28°05' W 015°02'1515.2
2016-Jul-21 23:33N 28°07' W 015°19'5 5.1
2016-Jul-21 22:33N 28°08' W 015°25'0 0.0
2016-Jul-21 21:33N 28°08' W 015°25'0 0.0
2016-Jul-21 20:33N 28°08' W 015°25'0 0.0
2016-Jul-21 19:33N 28°08' W 015°25'0 0.0
2016-Jul-21 18:33N 28°08' W 015°25'0 0.0
2016-Jul-21 17:33N 28°08' W 015°25'1 0.9
2016-Jul-21 16:34N 28°07' W 015°24'1514.6
2016-Jul-21 15:34N 28°05' W 015°08'1615.6
2016-Jul-21 14:34N 28°04' W 014°50'1615.9
2016-Jul-21 13:34N 28°02' W 014°33'1615.6
2016-Jul-21 12:34N 28°03' W 014°15'2016.3
2016-Jul-21 11:20N 28°13' W 013°55'1215.8
2016-Jul-21 10:33N 28°24' W 013°50'6 5.7
2016-Jul-21 09:33N 28°30' W 013°51'0 0.0
2016-Jul-21 08:33N 28°30' W 013°51'0 0.0
2016-Jul-21 07:33N 28°30' W 013°51'0 0.0
2016-Jul-21 06:33N 28°30' W 013°51'4 3.5
2016-Jul-21 05:33N 28°27' W 013°49'1514.7
2016-Jul-21 04:33N 28°13' W 013°55'1615.7
2016-Jul-21 03:33N 28°05' W 014°11'1515.1
2016-Jul-21 02:34N 28°01' W 014°27'1514.8
2016-Jul-21 01:33N 28°03' W 014°44'1515.0
2016-Jul-21 00:34N 28°04' W 015°00'1514.9
2016-Jul-20 23:34N 28°06' W 015°17'7 6.9
2016-Jul-20 22:33N 28°08' W 015°25'0 0.0
2016-Jul-20 21:33N 28°08' W 015°25'0 0.0
2016-Jul-20 20:34N 28°08' W 015°25'0 0.0
2016-Jul-20 19:34N 28°08' W 015°25'0 0.0
2016-Jul-20 18:33N 28°08' W 015°25'0 0.0
2016-Jul-20 17:34N 28°08' W 015°25'2 2.2
2016-Jul-20 16:33N 28°07' W 015°23'1515.0
2016-Jul-20 15:33N 28°05' W 015°06'1515.2
2016-Jul-20 14:33N 28°03' W 014°49'1615.5
2016-Jul-20 13:34N 28°02' W 014°31'1615.7
2016-Jul-20 12:33N 28°04' W 014°14'2315.7
2016-Jul-20 11:04N 28°18' W 013°52'815.8
2016-Jul-20 10:32N 28°26' W 013°50'4 4.2
2016-Jul-20 09:33N 28°30' W 013°51'0 0.0
2016-Jul-20 08:33N 28°30' W 013°51'0 0.0
2016-Jul-20 07:30N 28°30' W 013°51'8010.0
2016-Jul-19 23:26N 28°06' W 015°19'6 6.1
2016-Jul-19 22:32N 28°08' W 015°25'0 0.0
2016-Jul-19 21:34N 28°08' W 015°25'0 0.0
2016-Jul-19 20:34N 28°08' W 015°25'0 0.0
2016-Jul-19 19:34N 28°08' W 015°25'0 0.0
2016-Jul-19 18:34N 28°08' W 015°25'0 0.0
2016-Jul-19 17:33N 28°08' W 015°25'3 2.7
2016-Jul-19 16:33N 28°07' W 015°22'1815.3
2016-Jul-19 15:24N 28°05' W 015°02'16 1.0
2016-Jul-18 23:33N 28°07' W 015°21'4 4.0
2016-Jul-18 22:33N 28°08' W 015°25'0 0.0
2016-Jul-18 21:34N 28°08' W 015°25'0 0.0
2016-Jul-18 20:33N 28°08' W 015°25'0 0.0
2016-Jul-18 19:34N 28°08' W 015°25'0 0.0
2016-Jul-18 18:33N 28°08' W 015°25'0 0.0
2016-Jul-18 17:34N 28°08' W 015°25'0 0.0
2016-Jul-18 16:34N 28°08' W 015°25'0 0.0
2016-Jul-18 15:33N 28°08' W 015°25'0 0.0
2016-Jul-18 14:33N 28°08' W 015°25'0 0.0
2016-Jul-18 13:33N 28°08' W 015°25'0 0.0
2016-Jul-18 12:34N 28°08' W 015°25'0 0.0
2016-Jul-18 11:34N 28°08' W 015°25'0 0.0
2016-Jul-18 10:34N 28°08' W 015°25'0 0.0
2016-Jul-18 09:33N 28°08' W 015°25'0 0.0
2016-Jul-18 08:33N 28°08' W 015°25'0 0.0
2016-Jul-18 07:34N 28°08' W 015°25'0 0.1
2016-Jul-18 06:33N 28°08' W 015°25'0 0.0
2016-Jul-18 05:34N 28°08' W 015°25'0 0.0
2016-Jul-18 04:33N 28°08' W 015°25'0 0.0
2016-Jul-18 03:34N 28°08' W 015°25'0 0.0
2016-Jul-18 02:34N 28°08' W 015°25'0 0.0
2016-Jul-18 01:34N 28°08' W 015°25'0 0.0
2016-Jul-18 00:34N 28°08' W 015°25'0 0.0
2016-Jul-17 23:34N 28°08' W 015°25'0 0.0
2016-Jul-17 22:34N 28°08' W 015°25'0 0.0
2016-Jul-17 21:33N 28°08' W 015°25'0 0.0
2016-Jul-17 20:34N 28°08' W 015°25'0 0.0
2016-Jul-17 19:34N 28°08' W 015°25'0 0.0
2016-Jul-17 18:33N 28°08' W 015°25'0 0.0
2016-Jul-17 17:34N 28°08' W 015°25'0 0.0
2016-Jul-17 16:34N 28°08' W 015°25'0 0.0
2016-Jul-17 15:33N 28°08' W 015°25'0 0.0
2016-Jul-17 14:33N 28°08' W 015°25'0 0.0
2016-Jul-17 13:33N 28°08' W 015°25'0 0.0
2016-Jul-17 12:33N 28°08' W 015°25'0 0.0
2016-Jul-17 11:34N 28°08' W 015°25'0 0.0
2016-Jul-17 10:34N 28°08' W 015°25'0 0.0
2016-Jul-17 09:34N 28°08' W 015°25'0 0.0
2016-Jul-17 08:34N 28°08' W 015°25'0 0.0
2016-Jul-17 07:33N 28°08' W 015°25'0 0.0
2016-Jul-17 06:34N 28°08' W 015°25'0 0.0
2016-Jul-17 04:34N 28°08' W 015°25'0 0.0
2016-Jul-17 03:33N 28°08' W 015°25'0 0.0
2016-Jul-17 02:33N 28°08' W 015°25'0 0.0
2016-Jul-17 01:33N 28°08' W 015°25'0 0.0
2016-Jul-17 00:33N 28°08' W 015°25'0 0.0
2016-Jul-16 23:33N 28°08' W 015°25'0 0.0
2016-Jul-16 22:34N 28°08' W 015°25'0 0.0
2016-Jul-16 21:33N 28°08' W 015°25'0 0.0
2016-Jul-16 20:33N 28°08' W 015°25'0 0.0
2016-Jul-16 19:34N 28°08' W 015°25'0 0.0
2016-Jul-16 18:34N 28°08' W 015°25'0 0.0
2016-Jul-16 17:33N 28°08' W 015°25'0 0.1
2016-Jul-16 16:34N 28°08' W 015°25'3214.4
2016-Jul-16 14:22N 28°03' W 014°49'1316.2
2016-Jul-16 13:34N 28°02' W 014°35'1616.0
2016-Jul-16 12:33N 28°02' W 014°17'2016.7
2016-Jul-16 11:21N 28°12' W 013°57'1316.0
2016-Jul-16 10:33N 28°23' W 013°50'7 3.3
2016-Jul-16 08:33N 28°30' W 013°51'0 0.0
2016-Jul-16 07:33N 28°30' W 013°51'0 0.0
2016-Jul-16 06:30N 28°30' W 013°51'  
Track history (hours):
 
Tides and Currents Weather Stations Pressure Air Temp Water Temp Dewpoint Dewpoint Depression Visibility Wind Speed Wind Dir Waves Ship Positions

Volcan De Tauce

Last reported at 2016-Jul-25 17:34 UTC. Time now 2016-Jul-25 17:49 UTC.
Position N 28°08' W 015°25'.

Length 120 m; draft 5 m.

Type: Ship (hazmat cat A). MMSI: 224761000.

Date/timePositionNaut miles runAvg speedWind from/ knotsBaromVisibWave heightAir tempDewpointWater temp
2016-Jul-25 17:34N 28°08' W 015°25'0 0.0
2016-Jul-25 16:33N 28°08' W 015°25'0 0.0
2016-Jul-25 15:34N 28°08' W 015°25'0 0.0
2016-Jul-25 14:33N 28°08' W 015°25'0 0.0
2016-Jul-25 13:33N 28°08' W 015°25'0 0.0
2016-Jul-25 12:33N 28°08' W 015°25'0 0.0
2016-Jul-25 11:33N 28°08' W 015°25'0 0.0
2016-Jul-25 10:33N 28°08' W 015°25'0 0.0
2016-Jul-25 09:34N 28°08' W 015°25'0 0.0
2016-Jul-25 08:33N 28°08' W 015°25'0 0.0
2016-Jul-25 07:33N 28°08' W 015°25'0 0.0
2016-Jul-25 06:33N 28°08' W 015°25'0 0.0
2016-Jul-25 05:33N 28°08' W 015°25'0 0.0
2016-Jul-25 04:34N 28°08' W 015°25'0 0.0
2016-Jul-25 03:33N 28°08' W 015°25'0 0.0
2016-Jul-25 02:34N 28°08' W 015°25'0 0.0
2016-Jul-25 01:34N 28°08' W 015°25'0 0.0
2016-Jul-25 00:33N 28°08' W 015°25'0 0.0
2016-Jul-24 23:34N 28°08' W 015°25'0 0.0
2016-Jul-24 22:33N 28°08' W 015°25'0 0.0
2016-Jul-24 21:34N 28°08' W 015°25'0 0.0
2016-Jul-24 20:33N 28°08' W 015°25'0 0.0
2016-Jul-24 19:33N 28°08' W 015°25'0 0.0
2016-Jul-24 18:33N 28°08' W 015°25'0 0.0
2016-Jul-24 17:33N 28°08' W 015°25'0 0.0
2016-Jul-24 16:34N 28°08' W 015°25'0 0.0
2016-Jul-24 15:34N 28°08' W 015°25'0 0.0
2016-Jul-24 14:34N 28°08' W 015°25'1110.6
2016-Jul-24 13:34N 28°06' W 015°13'1615.8
2016-Jul-24 12:33N 28°06' W 014°55'1615.9
2016-Jul-24 11:33N 28°02' W 014°38'1616.4
2016-Jul-24 10:33N 28°01' W 014°19'1716.4
2016-Jul-24 09:33N 28°09' W 014°03'9 1.7
2016-Jul-24 04:10N 28°14' W 013°54'1015.6
2016-Jul-24 03:33N 28°09' W 014°03'1515.3
2016-Jul-24 02:33N 28°02' W 014°18'1414.3
2016-Jul-24 01:33N 28°00' W 014°34'1515.0
2016-Jul-24 00:33N 28°02' W 014°51'1514.9
2016-Jul-23 23:33N 28°04' W 015°08'1514.9
2016-Jul-23 22:34N 28°07' W 015°24'1 1.0
2016-Jul-23 21:31N 28°08' W 015°25'0 0.0
2016-Jul-23 20:33N 28°08' W 015°25'0 0.0
2016-Jul-23 19:33N 28°08' W 015°25'0 0.0
2016-Jul-23 18:34N 28°08' W 015°25'0 0.0
2016-Jul-23 17:33N 28°08' W 015°25'1 1.3
2016-Jul-23 16:33N 28°07' W 015°24'1514.5
2016-Jul-23 15:33N 28°08' W 015°08'1515.4
2016-Jul-23 14:33N 28°08' W 014°50'1615.6
2016-Jul-23 13:33N 28°02' W 014°34'1716.3
2016-Jul-23 12:32N 28°03' W 014°15'1616.7
2016-Jul-23 11:33N 28°11' W 013°59'1715.2
2016-Jul-23 10:25N 28°26' W 013°49'1 0.2
2016-Jul-23 06:13N 28°27' W 013°50'2112.8
2016-Jul-23 04:34N 28°09' W 014°02'1515.0
2016-Jul-23 03:34N 28°02' W 014°17'1514.4
2016-Jul-23 02:33N 28°00' W 014°33'1414.6
2016-Jul-23 01:34N 28°01' W 014°50'1514.5
2016-Jul-23 00:33N 28°04' W 015°06'1514.7
2016-Jul-22 23:34N 28°07' W 015°22'3 2.5
2016-Jul-22 22:32N 28°08' W 015°25'0 0.0
2016-Jul-22 21:33N 28°08' W 015°25'0 0.0
2016-Jul-22 20:33N 28°08' W 015°25'0 0.0
2016-Jul-22 19:34N 28°08' W 015°25'0 0.0
2016-Jul-22 18:34N 28°08' W 015°25'0 0.0
2016-Jul-22 17:34N 28°08' W 015°25'1 1.0
2016-Jul-22 16:34N 28°07' W 015°24'1514.7
2016-Jul-22 15:33N 28°05' W 015°08'1615.7
2016-Jul-22 14:33N 28°04' W 014°50'1615.6
2016-Jul-22 13:33N 28°02' W 014°33'1615.5
2016-Jul-22 12:31N 28°03' W 014°14'1716.6
2016-Jul-22 11:29N 28°12' W 013°58'1615.0
2016-Jul-22 10:24N 28°26' W 013°50'16 2.7
2016-Jul-22 04:33N 28°12' W 013°57'1715.4
2016-Jul-22 03:29N 28°04' W 014°13'1414.7
2016-Jul-22 02:31N 28°02' W 014°29'1515.1
2016-Jul-22 01:29N 28°03' W 014°47'1414.9
2016-Jul-22 00:34N 28°05' W 015°02'1515.2
2016-Jul-21 23:33N 28°07' W 015°19'5 5.1
2016-Jul-21 22:33N 28°08' W 015°25'0 0.0
2016-Jul-21 21:33N 28°08' W 015°25'0 0.0
2016-Jul-21 20:33N 28°08' W 015°25'0 0.0
2016-Jul-21 19:33N 28°08' W 015°25'0 0.0
2016-Jul-21 18:33N 28°08' W 015°25'0 0.0
2016-Jul-21 17:33N 28°08' W 015°25'1 0.9
2016-Jul-21 16:34N 28°07' W 015°24'1514.6
2016-Jul-21 15:34N 28°05' W 015°08'1615.6
2016-Jul-21 14:34N 28°04' W 014°50'1615.9
2016-Jul-21 13:34N 28°02' W 014°33'1615.6
2016-Jul-21 12:34N 28°03' W 014°15'2016.3
2016-Jul-21 11:20N 28°13' W 013°55'1215.8
2016-Jul-21 10:33N 28°24' W 013°50'6 5.7
2016-Jul-21 09:33N 28°30' W 013°51'0 0.0
2016-Jul-21 08:33N 28°30' W 013°51'0 0.0
2016-Jul-21 07:33N 28°30' W 013°51'0 0.0
2016-Jul-21 06:33N 28°30' W 013°51'4 3.5
2016-Jul-21 05:33N 28°27' W 013°49'1514.7
2016-Jul-21 04:33N 28°13' W 013°55'1615.7
2016-Jul-21 03:33N 28°05' W 014°11'1515.1
2016-Jul-21 02:34N 28°01' W 014°27'1514.8
2016-Jul-21 01:33N 28°03' W 014°44'1515.0
2016-Jul-21 00:34N 28°04' W 015°00'1514.9
2016-Jul-20 23:34N 28°06' W 015°17'7 6.9
2016-Jul-20 22:33N 28°08' W 015°25'0 0.0
2016-Jul-20 21:33N 28°08' W 015°25'0 0.0
2016-Jul-20 20:34N 28°08' W 015°25'0 0.0
2016-Jul-20 19:34N 28°08' W 015°25'0 0.0
2016-Jul-20 18:33N 28°08' W 015°25'0 0.0
2016-Jul-20 17:34N 28°08' W 015°25'2 2.2
2016-Jul-20 16:33N 28°07' W 015°23'1515.0
2016-Jul-20 15:33N 28°05' W 015°06'1515.2
2016-Jul-20 14:33N 28°03' W 014°49'1615.5
2016-Jul-20 13:34N 28°02' W 014°31'1615.7
2016-Jul-20 12:33N 28°04' W 014°14'2315.7
2016-Jul-20 11:04N 28°18' W 013°52'815.8
2016-Jul-20 10:32N 28°26' W 013°50'4 4.2
2016-Jul-20 09:33N 28°30' W 013°51'0 0.0
2016-Jul-20 08:33N 28°30' W 013°51'0 0.0
2016-Jul-20 07:30N 28°30' W 013°51'8010.0
2016-Jul-19 23:26N 28°06' W 015°19'6 6.1
2016-Jul-19 22:32N 28°08' W 015°25'0 0.0
2016-Jul-19 21:34N 28°08' W 015°25'0 0.0
2016-Jul-19 20:34N 28°08' W 015°25'0 0.0
2016-Jul-19 19:34N 28°08' W 015°25'0 0.0
2016-Jul-19 18:34N 28°08' W 015°25'0 0.0
2016-Jul-19 17:33N 28°08' W 015°25'3 2.7
2016-Jul-19 16:33N 28°07' W 015°22'1815.3
2016-Jul-19 15:24N 28°05' W 015°02'16 1.0
2016-Jul-18 23:33N 28°07' W 015°21'4 4.0
2016-Jul-18 22:33N 28°08' W 015°25'0 0.0
2016-Jul-18 21:34N 28°08' W 015°25'0 0.0
2016-Jul-18 20:33N 28°08' W 015°25'0 0.0
2016-Jul-18 19:34N 28°08' W 015°25'0 0.0
2016-Jul-18 18:33N 28°08' W 015°25'0 0.0
2016-Jul-18 17:34N 28°08' W 015°25'0 0.0
2016-Jul-18 16:34N 28°08' W 015°25'0 0.0
2016-Jul-18 15:33N 28°08' W 015°25'0 0.0
2016-Jul-18 14:33N 28°08' W 015°25'0 0.0
2016-Jul-18 13:33N 28°08' W 015°25'0 0.0
2016-Jul-18 12:34N 28°08' W 015°25'0 0.0
2016-Jul-18 11:34N 28°08' W 015°25'0 0.0
2016-Jul-18 10:34N 28°08' W 015°25'0 0.0
2016-Jul-18 09:33N 28°08' W 015°25'0 0.0
2016-Jul-18 08:33N 28°08' W 015°25'0 0.0
2016-Jul-18 07:34N 28°08' W 015°25'0 0.1
2016-Jul-18 06:33N 28°08' W 015°25'0 0.0
2016-Jul-18 05:34N 28°08' W 015°25'0 0.0
2016-Jul-18 04:33N 28°08' W 015°25'0 0.0
2016-Jul-18 03:34N 28°08' W 015°25'0 0.0
2016-Jul-18 02:34N 28°08' W 015°25'0 0.0
2016-Jul-18 01:34N 28°08' W 015°25'0 0.0
2016-Jul-18 00:34N 28°08' W 015°25'0 0.0
2016-Jul-17 23:34N 28°08' W 015°25'0 0.0
2016-Jul-17 22:34N 28°08' W 015°25'0 0.0
2016-Jul-17 21:33N 28°08' W 015°25'0 0.0
2016-Jul-17 20:34N 28°08' W 015°25'0 0.0
2016-Jul-17 19:34N 28°08' W 015°25'0 0.0
2016-Jul-17 18:33N 28°08' W 015°25'0 0.0
2016-Jul-17 17:34N 28°08' W 015°25'0 0.0
2016-Jul-17 16:34N 28°08' W 015°25'0 0.0
2016-Jul-17 15:33N 28°08' W 015°25'0 0.0
2016-Jul-17 14:33N 28°08' W 015°25'0 0.0
2016-Jul-17 13:33N 28°08' W 015°25'0 0.0
2016-Jul-17 12:33N 28°08' W 015°25'0 0.0
2016-Jul-17 11:34N 28°08' W 015°25'0 0.0
2016-Jul-17 10:34N 28°08' W 015°25'0 0.0
2016-Jul-17 09:34N 28°08' W 015°25'0 0.0
2016-Jul-17 08:34N 28°08' W 015°25'0 0.0
2016-Jul-17 07:33N 28°08' W 015°25'0 0.0
2016-Jul-17 06:34N 28°08' W 015°25'0 0.0
2016-Jul-17 04:34N 28°08' W 015°25'0 0.0
2016-Jul-17 03:33N 28°08' W 015°25'0 0.0
2016-Jul-17 02:33N 28°08' W 015°25'0 0.0
2016-Jul-17 01:33N 28°08' W 015°25'0 0.0
2016-Jul-17 00:33N 28°08' W 015°25'0 0.0
2016-Jul-16 23:33N 28°08' W 015°25'0 0.0
2016-Jul-16 22:34N 28°08' W 015°25'0 0.0
2016-Jul-16 21:33N 28°08' W 015°25'0 0.0
2016-Jul-16 20:33N 28°08' W 015°25'0 0.0
2016-Jul-16 19:34N 28°08' W 015°25'0 0.0
2016-Jul-16 18:34N 28°08' W 015°25'0 0.0
2016-Jul-16 17:33N 28°08' W 015°25'0 0.1
2016-Jul-16 16:34N 28°08' W 015°25'3214.4
2016-Jul-16 14:22N 28°03' W 014°49'1316.2
2016-Jul-16 13:34N 28°02' W 014°35'1616.0
2016-Jul-16 12:33N 28°02' W 014°17'2016.7
2016-Jul-16 11:21N 28°12' W 013°57'1316.0
2016-Jul-16 10:33N 28°23' W 013°50'7 3.3
2016-Jul-16 08:33N 28°30' W 013°51'0 0.0
2016-Jul-16 07:33N 28°30' W 013°51'0 0.0
2016-Jul-16 06:30N 28°30' W 013°51'  

Dump ship's entire track history